West Manchester, Ohio
Current Conditions -  °F | °C
As of 12:55 AM on Wednesday 22 Oct 2014 (Local Time) from KVES Reporting Station
Overcast Overcast  
Wind Chill: 39°   Ceiling: 4300
Heat Index: 43°   Visibility: 10mi
Dew Point: 39°   Wind: 7mph
Humidity: 87%   Direction: 10°N
Pressure: 30.19"   Gusts: NA
Location:  39.9°N, 84.63°W
Report Text: KVES 220455Z AUTO 01006KT 10SM SCT021 OVC043 06/04 A3019 RMK AO2
Loading
Personal Weather Stations






























Interactive Weather Map
Tropical Storm Tracking
New forecast layout! Learn more

10-Day Weather Forecast

Advertisements
Track Severe Weather on mobile